createdAt,value
2017-11-09T00:01:42.104Z,5.47
2017-11-09T00:04:12.891Z,5.43
2017-11-09T00:06:43.653Z,5.60
2017-11-09T00:09:14.422Z,6.00
2017-11-09T00:11:45.172Z,5.17
2017-11-09T00:14:15.954Z,5.83
2017-11-09T00:16:46.730Z,5.53
2017-11-09T00:19:17.505Z,5.57
2017-11-09T00:21:48.277Z,5.40
2017-11-09T00:24:19.035Z,5.63
2017-11-09T00:26:49.818Z,5.80
2017-11-09T00:29:20.587Z,6.20
2017-11-09T00:31:51.327Z,5.67
2017-11-09T00:34:22.097Z,5.63
2017-11-09T00:36:52.861Z,6.03
2017-11-09T00:39:23.645Z,6.30
2017-11-09T00:41:54.399Z,6.07
2017-11-09T00:44:25.165Z,5.87
2017-11-09T00:46:55.952Z,5.80
2017-11-09T00:49:26.717Z,5.80
2017-11-09T00:51:57.486Z,5.80
2017-11-09T00:54:28.260Z,6.03
2017-11-09T00:56:59.007Z,5.90
2017-11-09T00:59:29.778Z,6.07
2017-11-09T01:02:00.535Z,6.00
2017-11-09T01:04:31.321Z,6.53
2017-11-09T01:07:02.085Z,6.50
2017-11-09T01:09:32.849Z,5.80
2017-11-09T01:12:03.622Z,6.23
2017-11-09T01:14:34.385Z,6.00
2017-11-09T01:17:05.145Z,6.13
2017-11-09T01:19:35.914Z,6.20
2017-11-09T01:22:06.686Z,5.70
2017-11-09T01:24:37.453Z,5.77
2017-11-09T01:27:08.246Z,5.73
2017-11-09T01:29:39.007Z,5.77
2017-11-09T01:32:09.761Z,5.90
2017-11-09T01:34:40.536Z,5.80
2017-11-09T01:37:11.298Z,5.80
2017-11-09T01:39:42.049Z,5.70
2017-11-09T01:42:12.851Z,5.40
2017-11-09T01:44:43.602Z,5.93
2017-11-09T01:47:14.354Z,5.90
2017-11-09T01:49:45.114Z,5.90
2017-11-09T01:52:15.890Z,6.23
2017-11-09T01:54:46.670Z,5.30
2017-11-09T01:57:17.443Z,5.53
2017-11-09T01:59:48.210Z,5.40
2017-11-09T02:02:18.966Z,5.20
2017-11-09T02:04:49.757Z,5.70
2017-11-09T02:07:20.499Z,5.70
2017-11-09T02:09:51.265Z,5.30
2017-11-09T02:12:22.028Z,5.43
2017-11-09T02:14:52.792Z,5.77
2017-11-09T02:17:23.586Z,5.20
2017-11-09T02:19:54.341Z,5.10
2017-11-09T02:22:25.126Z,5.53
2017-11-09T02:24:55.887Z,4.90
2017-11-09T02:27:26.686Z,5.70
2017-11-09T02:29:57.449Z,5.63
2017-11-09T02:32:28.210Z,5.50
2017-11-09T02:34:59.009Z,5.50
2017-11-09T02:37:29.756Z,5.40
2017-11-09T02:40:00.513Z,5.37
2017-11-09T02:42:31.274Z,5.30
2017-11-09T02:45:02.068Z,5.23
2017-11-09T02:47:32.828Z,5.60
2017-11-09T02:50:03.589Z,5.43
2017-11-09T02:52:34.375Z,5.53
2017-11-09T02:55:05.146Z,5.27
2017-11-09T02:57:35.909Z,5.00
2017-11-09T03:00:06.669Z,5.30
2017-11-09T03:02:37.445Z,5.13
2017-11-09T03:05:08.198Z,5.80
2017-11-09T03:07:38.978Z,5.13
2017-11-09T03:10:09.730Z,5.40
2017-11-09T03:12:40.498Z,5.20
2017-11-09T03:15:11.263Z,5.03
2017-11-09T03:17:42.030Z,5.93
2017-11-09T03:20:12.777Z,5.23
2017-11-09T03:22:43.563Z,5.03
2017-11-09T03:25:14.319Z,5.50
2017-11-09T03:27:45.085Z,5.40
2017-11-09T03:30:15.843Z,5.20
2017-11-09T03:32:46.602Z,5.30
2017-11-09T03:35:17.362Z,5.27
2017-11-09T03:37:48.137Z,5.53
2017-11-09T03:40:18.878Z,5.27
2017-11-09T03:42:49.649Z,5.23
2017-11-09T03:45:20.407Z,5.33
2017-11-09T03:47:51.181Z,5.33
2017-11-09T03:50:21.947Z,5.37
2017-11-09T03:52:52.725Z,5.47
2017-11-09T03:55:23.469Z,5.40
2017-11-09T03:57:54.247Z,5.40
2017-11-09T04:00:24.995Z,5.23
2017-11-09T04:02:55.770Z,4.80
2017-11-09T04:05:26.551Z,5.30
2017-11-09T04:07:57.329Z,5.10
2017-11-09T04:10:28.087Z,5.50
2017-11-09T04:12:58.842Z,5.07
2017-11-09T04:15:29.600Z,5.33
2017-11-09T04:18:00.362Z,5.23
2017-11-09T04:20:31.147Z,5.17
2017-11-09T04:23:01.906Z,5.30
2017-11-09T04:25:32.678Z,5.27
2017-11-09T04:28:03.441Z,5.30
2017-11-09T04:30:34.233Z,5.60
2017-11-09T04:33:05.004Z,5.10
2017-11-09T04:35:35.775Z,5.60
2017-11-09T04:38:06.557Z,5.33
2017-11-09T04:40:37.311Z,5.30
2017-11-09T04:43:08.077Z,5.20
2017-11-09T04:45:38.889Z,5.20
2017-11-09T04:48:09.645Z,5.50
2017-11-09T04:50:40.405Z,5.30
2017-11-09T04:53:11.177Z,5.47
2017-11-09T04:55:41.952Z,5.03
2017-11-09T04:58:12.706Z,5.10
2017-11-09T05:00:43.494Z,4.77
2017-11-09T05:03:14.256Z,4.80
2017-11-09T05:05:45.018Z,5.13
2017-11-09T05:08:15.771Z,4.80
2017-11-09T05:10:46.552Z,4.87
2017-11-09T05:13:17.321Z,4.80
2017-11-09T05:15:48.076Z,4.57
2017-11-09T05:18:18.844Z,4.80
2017-11-09T05:20:49.615Z,4.67
2017-11-09T05:23:20.377Z,4.53
2017-11-09T05:25:51.141Z,4.80
2017-11-09T05:28:21.908Z,4.70
2017-11-09T05:30:52.665Z,5.07
2017-11-09T05:33:23.464Z,4.87
2017-11-09T05:35:54.206Z,4.47
2017-11-09T05:38:24.999Z,4.57
2017-11-09T05:40:55.755Z,4.60
2017-11-09T05:43:26.522Z,4.50
2017-11-09T05:45:57.278Z,4.70
2017-11-09T05:48:28.068Z,4.60
2017-11-09T05:50:58.821Z,4.70
2017-11-09T05:53:29.604Z,4.40
2017-11-09T05:56:00.376Z,4.60
2017-11-09T05:58:31.190Z,4.87
2017-11-09T06:01:01.945Z,4.57
2017-11-09T06:03:32.721Z,4.47
2017-11-09T06:06:03.484Z,4.63
2017-11-09T06:08:34.254Z,4.60
2017-11-09T06:11:05.041Z,4.80
2017-11-09T06:13:35.794Z,4.63
2017-11-09T06:16:06.566Z,4.70
2017-11-09T06:18:37.366Z,4.53
2017-11-09T06:21:08.146Z,4.73
2017-11-09T06:23:38.910Z,4.10
2017-11-09T06:26:09.668Z,4.37
2017-11-09T06:28:40.429Z,4.30
2017-11-09T06:31:11.173Z,4.20
2017-11-09T06:33:41.950Z,4.07
2017-11-09T06:36:12.705Z,4.50
2017-11-09T06:38:43.473Z,4.20
2017-11-09T06:41:14.230Z,4.20
2017-11-09T06:43:45.004Z,3.80
2017-11-09T06:46:15.811Z,3.93
2017-11-09T06:48:46.574Z,4.20
2017-11-09T06:51:17.325Z,4.27
2017-11-09T06:53:48.093Z,4.30
2017-11-09T06:56:18.833Z,4.40
2017-11-09T06:58:49.723Z,3.97
2017-11-09T07:01:20.478Z,4.80
2017-11-09T07:03:51.253Z,4.30
2017-11-09T07:06:22.013Z,4.37
2017-11-09T07:08:52.788Z,4.50
2017-11-09T07:11:23.570Z,4.27
2017-11-09T07:13:54.331Z,4.33
2017-11-09T07:16:25.115Z,4.23
2017-11-09T07:18:55.862Z,4.23
2017-11-09T07:21:26.630Z,4.07
2017-11-09T07:23:57.378Z,4.10
2017-11-09T07:26:28.144Z,4.10
2017-11-09T07:28:58.894Z,4.37
2017-11-09T07:31:29.670Z,4.00
2017-11-09T07:34:00.435Z,4.17
2017-11-09T07:36:31.209Z,4.33
2017-11-09T07:39:02.004Z,4.03
2017-11-09T07:41:32.771Z,4.27
2017-11-09T07:44:03.534Z,4.10
2017-11-09T07:46:34.294Z,4.20
2017-11-09T07:49:05.042Z,4.00
2017-11-09T07:51:35.819Z,3.80
2017-11-09T07:54:06.566Z,4.30
2017-11-09T07:56:37.352Z,4.20
2017-11-09T07:59:08.083Z,4.00
2017-11-09T08:01:38.850Z,4.00
2017-11-09T08:04:09.605Z,4.20
2017-11-09T08:06:40.386Z,4.30
2017-11-09T08:09:11.156Z,4.50
2017-11-09T08:11:41.945Z,4.20
2017-11-09T08:14:12.710Z,4.13
2017-11-09T08:16:43.474Z,4.67
2017-11-09T08:19:15.109Z,4.47
2017-11-09T08:21:45.873Z,4.87
2017-11-09T08:24:16.634Z,4.27
2017-11-09T08:26:47.382Z,4.37
2017-11-09T08:29:18.154Z,4.60
2017-11-09T08:31:48.894Z,4.47
2017-11-09T08:34:19.689Z,4.40
2017-11-09T08:36:50.501Z,4.50
2017-11-09T08:39:21.278Z,4.47
2017-11-09T08:41:52.022Z,4.47
2017-11-09T08:44:22.795Z,4.57
2017-11-09T08:46:53.542Z,4.50
2017-11-09T08:49:24.310Z,4.20
2017-11-09T08:51:55.062Z,4.30
2017-11-09T08:54:25.835Z,4.53
2017-11-09T08:56:56.602Z,4.67
2017-11-09T08:59:27.365Z,4.63
2017-11-09T09:01:58.117Z,4.43
2017-11-09T09:04:28.906Z,4.40
2017-11-09T09:06:59.663Z,4.27
2017-11-09T09:09:30.433Z,4.53
2017-11-09T09:12:01.190Z,4.70
2017-11-09T09:14:31.961Z,4.40
2017-11-09T09:17:02.734Z,4.60
2017-11-09T09:19:33.499Z,4.63
2017-11-09T09:22:04.253Z,4.43
2017-11-09T09:24:35.041Z,4.50
2017-11-09T09:27:05.813Z,4.60
2017-11-09T09:29:36.584Z,4.43
2017-11-09T09:32:07.355Z,4.73
2017-11-09T09:34:38.123Z,4.40
2017-11-09T09:37:08.874Z,5.00
2017-11-09T09:39:39.646Z,4.80
2017-11-09T09:42:10.405Z,5.00
2017-11-09T09:44:41.262Z,4.80
2017-11-09T09:47:12.042Z,5.00
2017-11-09T09:49:42.813Z,4.80
2017-11-09T09:52:13.599Z,4.57
2017-11-09T09:54:44.654Z,4.73
2017-11-09T09:57:15.434Z,4.60
2017-11-09T09:59:46.197Z,4.40
2017-11-09T10:02:16.951Z,4.60
2017-11-09T10:04:47.763Z,4.80
2017-11-09T10:07:18.532Z,4.60
2017-11-09T10:09:49.313Z,4.70
2017-11-09T10:12:20.077Z,4.27
2017-11-09T10:14:50.846Z,5.20
2017-11-09T10:17:21.643Z,4.47
2017-11-09T10:19:52.412Z,4.40
2017-11-09T10:22:23.176Z,4.37
2017-11-09T10:24:53.946Z,4.40
2017-11-09T10:27:24.735Z,4.70
2017-11-09T10:29:55.517Z,5.27
2017-11-09T10:32:26.306Z,4.90
2017-11-09T10:34:57.078Z,4.70
2017-11-09T10:37:27.850Z,4.73
2017-11-09T10:39:58.599Z,5.00
2017-11-09T10:42:29.398Z,4.90
2017-11-09T10:45:00.161Z,5.20
2017-11-09T10:47:30.940Z,5.10
2017-11-09T10:50:01.683Z,5.07
2017-11-09T10:52:32.462Z,5.43
2017-11-09T10:55:03.246Z,5.00
2017-11-09T10:57:34.002Z,5.30
2017-11-09T11:00:04.773Z,5.63
2017-11-09T11:02:35.536Z,5.10
2017-11-09T11:05:06.282Z,5.23
2017-11-09T11:07:37.061Z,5.70
2017-11-09T11:10:07.809Z,5.37
2017-11-09T11:12:38.606Z,4.80
2017-11-09T11:15:09.362Z,5.03
2017-11-09T11:17:40.134Z,5.17
2017-11-09T11:20:10.886Z,5.30
2017-11-09T11:22:41.654Z,5.67
2017-11-09T11:25:12.405Z,5.60
2017-11-09T11:27:43.166Z,5.70
2017-11-09T11:30:13.945Z,5.40
2017-11-09T11:32:44.678Z,5.93
2017-11-09T11:35:15.458Z,5.20
2017-11-09T11:37:46.225Z,5.20
2017-11-09T11:40:16.984Z,5.40
2017-11-09T11:42:47.765Z,5.87
2017-11-09T11:45:18.526Z,5.47
2017-11-09T11:47:49.310Z,5.27
2017-11-09T11:50:20.078Z,5.30
2017-11-09T11:52:50.882Z,5.70
2017-11-09T11:55:21.630Z,5.93
2017-11-09T11:57:52.414Z,5.33
2017-11-09T12:00:23.182Z,5.23
2017-11-09T12:02:53.968Z,6.07
2017-11-09T12:05:24.735Z,5.13
2017-11-09T12:07:55.496Z,6.03
2017-11-09T12:10:26.267Z,5.40
2017-11-09T12:12:57.054Z,6.20
2017-11-09T12:15:27.805Z,5.80
2017-11-09T12:17:58.572Z,5.77
2017-11-09T12:20:29.356Z,5.30
2017-11-09T12:23:00.110Z,5.67
2017-11-09T12:25:30.894Z,6.00
2017-11-09T12:28:01.647Z,5.57
2017-11-09T12:30:32.434Z,5.70
2017-11-09T12:33:03.206Z,5.70
2017-11-09T12:35:33.986Z,5.57
2017-11-09T12:38:04.754Z,5.87
2017-11-09T12:40:35.509Z,5.90
2017-11-09T12:43:06.277Z,5.57
2017-11-09T12:45:37.026Z,5.37
2017-11-09T12:48:07.814Z,5.13
2017-11-09T12:50:38.574Z,5.47
2017-11-09T12:53:09.350Z,5.97
2017-11-09T12:55:40.105Z,5.50
2017-11-09T12:58:10.873Z,5.27
2017-11-09T13:00:41.638Z,5.27
2017-11-09T13:03:12.436Z,5.20
2017-11-09T13:05:43.243Z,5.90
2017-11-09T13:08:14.006Z,5.03
2017-11-09T13:10:44.836Z,5.63
2017-11-09T13:13:15.544Z,5.17
2017-11-09T13:15:46.337Z,5.90
2017-11-09T13:18:17.088Z,5.60
2017-11-09T13:20:47.874Z,5.30
2017-11-09T13:23:18.626Z,5.50
2017-11-09T13:25:49.386Z,5.60
2017-11-09T13:28:20.154Z,5.50
2017-11-09T13:30:50.929Z,5.77
2017-11-09T13:33:21.723Z,5.40
2017-11-09T13:35:52.511Z,5.33
2017-11-09T13:38:23.265Z,5.57
2017-11-09T13:40:54.045Z,5.70
2017-11-09T13:43:24.797Z,5.93
2017-11-09T13:45:55.574Z,5.47
2017-11-09T13:48:26.329Z,5.37
2017-11-09T13:50:57.085Z,5.47
2017-11-09T13:53:27.862Z,5.97
2017-11-09T13:55:58.632Z,5.43
2017-11-09T13:58:29.391Z,5.17
2017-11-09T14:01:00.154Z,5.93
2017-11-09T14:03:30.933Z,5.53
2017-11-09T14:06:01.689Z,5.60
2017-11-09T14:08:32.476Z,5.50
2017-11-09T14:11:03.258Z,5.63
2017-11-09T14:13:34.029Z,5.87
2017-11-09T14:16:04.781Z,5.63
2017-11-09T14:18:35.557Z,5.73
2017-11-09T14:21:06.334Z,5.97
2017-11-09T14:23:37.102Z,6.10
2017-11-09T14:26:07.858Z,5.73
2017-11-09T14:28:38.634Z,5.57
2017-11-09T14:31:09.394Z,5.60
2017-11-09T14:33:40.170Z,5.97
2017-11-09T14:36:10.933Z,5.67
2017-11-09T14:38:41.707Z,5.40
2017-11-09T14:41:12.470Z,5.83
2017-11-09T14:43:43.250Z,5.50
2017-11-09T14:46:14.012Z,5.43
2017-11-09T14:48:44.806Z,5.47
2017-11-09T14:51:16.302Z,5.80
2017-11-09T14:53:47.076Z,5.47
2017-11-09T14:56:17.826Z,5.70
2017-11-09T14:58:48.601Z,5.40
2017-11-09T15:01:19.374Z,5.40
2017-11-09T15:03:50.134Z,5.20
2017-11-09T15:06:20.915Z,5.10
2017-11-09T15:08:51.693Z,5.70
2017-11-09T15:11:22.459Z,5.20
2017-11-09T15:13:53.233Z,5.23
2017-11-09T15:16:24.026Z,5.20
2017-11-09T15:18:54.766Z,5.13
2017-11-09T15:21:25.522Z,5.40
2017-11-09T15:23:56.992Z,5.43
2017-11-09T15:26:27.757Z,5.70
2017-11-09T15:28:58.530Z,5.83
2017-11-09T15:31:29.285Z,5.40
2017-11-09T15:34:00.045Z,5.27
2017-11-09T15:36:30.798Z,5.23
2017-11-09T15:39:01.573Z,5.67
2017-11-09T15:41:32.322Z,5.83
2017-11-09T15:44:03.089Z,5.57
2017-11-09T15:46:33.854Z,5.27
2017-11-09T15:49:04.646Z,5.27
2017-11-09T15:51:35.373Z,5.20
2017-11-09T15:54:06.166Z,5.43
2017-11-09T15:56:36.926Z,5.67
2017-11-09T15:59:07.702Z,5.17
2017-11-09T16:01:38.789Z,5.43
2017-11-09T16:04:09.546Z,4.70
2017-11-09T16:06:40.337Z,5.10
2017-11-09T16:09:11.087Z,5.00
2017-11-09T16:11:41.852Z,5.17
2017-11-09T16:14:12.601Z,5.13
2017-11-09T16:16:43.370Z,5.67
2017-11-09T16:19:14.126Z,5.50
2017-11-09T16:21:44.913Z,5.43
2017-11-09T16:24:15.653Z,5.40
2017-11-09T16:26:46.436Z,5.40
2017-11-09T16:29:17.217Z,5.30
2017-11-09T16:31:47.974Z,5.33
2017-11-09T16:34:18.756Z,5.47
2017-11-09T16:36:49.524Z,5.20
2017-11-09T16:39:20.293Z,4.80
2017-11-09T16:41:51.078Z,5.03
2017-11-09T16:44:21.830Z,5.13
2017-11-09T16:46:52.615Z,5.10
2017-11-09T16:49:23.362Z,5.23
2017-11-09T16:51:54.159Z,5.60
2017-11-09T16:54:24.909Z,5.23
2017-11-09T16:56:55.706Z,5.10
2017-11-09T16:59:26.438Z,4.80
2017-11-09T17:01:57.238Z,5.20
2017-11-09T17:04:27.990Z,5.13
2017-11-09T17:06:58.758Z,5.07
2017-11-09T17:09:29.518Z,5.13
2017-11-09T17:12:00.288Z,5.27
2017-11-09T17:14:31.062Z,5.10
2017-11-09T17:17:01.805Z,5.17
2017-11-09T17:19:32.578Z,5.37
2017-11-09T17:22:03.325Z,5.03
2017-11-09T17:24:34.105Z,5.17
2017-11-09T17:27:04.863Z,5.10
2017-11-09T17:29:35.638Z,5.13
2017-11-09T17:32:06.425Z,5.30
2017-11-09T17:34:37.178Z,4.90
2017-11-09T17:37:07.949Z,5.00
2017-11-09T17:39:38.748Z,4.97
2017-11-09T17:42:09.505Z,4.93
2017-11-09T17:44:40.301Z,4.73
2017-11-09T17:47:11.051Z,5.50
2017-11-09T17:49:41.853Z,5.23
2017-11-09T17:52:12.612Z,5.00
2017-11-09T17:54:43.386Z,5.00
2017-11-09T17:57:14.151Z,5.17
2017-11-09T17:59:44.926Z,5.43
2017-11-09T18:02:15.705Z,4.97
2017-11-09T18:04:46.484Z,5.10
2017-11-09T18:07:17.261Z,5.27
2017-11-09T18:09:48.013Z,4.87
2017-11-09T18:12:18.789Z,5.10
2017-11-09T18:14:49.566Z,5.37
2017-11-09T18:17:20.338Z,5.17
2017-11-09T18:19:51.178Z,5.50
2017-11-09T18:22:21.946Z,5.27
2017-11-09T18:24:52.698Z,5.00
2017-11-09T18:27:23.481Z,5.00
2017-11-09T18:29:54.264Z,5.27
2017-11-09T18:32:25.073Z,4.97
2017-11-09T18:34:55.830Z,5.43
2017-11-09T18:37:26.614Z,4.93
2017-11-09T18:39:57.403Z,4.83
2017-11-09T18:42:28.167Z,5.10
2017-11-09T18:44:59.014Z,5.03
2017-11-09T18:47:29.778Z,4.90
2017-11-09T18:50:00.565Z,5.07
2017-11-09T18:52:31.337Z,5.27
2017-11-09T18:55:02.102Z,4.80
2017-11-09T18:57:32.862Z,5.30
2017-11-09T19:00:03.674Z,5.33
2017-11-09T19:02:34.425Z,5.13
2017-11-09T19:05:05.193Z,5.10
2017-11-09T19:07:35.966Z,5.70
2017-11-09T19:10:06.761Z,5.13
2017-11-09T19:12:37.508Z,5.60
2017-11-09T19:15:08.330Z,5.60
2017-11-09T19:17:39.083Z,5.50
2017-11-09T19:20:09.861Z,4.87
2017-11-09T19:22:40.635Z,5.20
2017-11-09T19:25:11.401Z,5.60
2017-11-09T19:27:42.152Z,5.47
2017-11-09T19:30:12.925Z,5.67
2017-11-09T19:32:43.673Z,5.70
2017-11-09T19:35:14.481Z,5.53
2017-11-09T19:37:45.236Z,5.70
2017-11-09T19:40:16.010Z,5.60
2017-11-09T19:42:46.774Z,5.50
2017-11-09T19:45:17.562Z,5.83
2017-11-09T19:47:48.361Z,5.70
2017-11-09T19:50:19.106Z,5.53
2017-11-09T19:52:49.894Z,5.50
2017-11-09T19:55:20.674Z,5.53
2017-11-09T19:57:51.450Z,5.60
2017-11-09T20:00:22.239Z,5.60
2017-11-09T20:02:53.006Z,5.73
2017-11-09T20:05:23.766Z,5.30
2017-11-09T20:07:54.536Z,5.87
2017-11-09T20:10:25.337Z,5.60
2017-11-09T20:12:56.078Z,5.87
2017-11-09T20:15:26.855Z,5.93
2017-11-09T20:17:57.634Z,5.53
2017-11-09T20:20:28.412Z,5.50
2017-11-09T20:22:59.216Z,5.40
2017-11-09T20:25:29.978Z,5.03
2017-11-09T20:28:00.773Z,5.00
2017-11-09T20:30:31.522Z,5.40
2017-11-09T20:33:03.114Z,5.60
2017-11-09T20:35:33.866Z,5.80
2017-11-09T20:38:04.633Z,5.87
2017-11-09T20:40:35.394Z,5.43
2017-11-09T20:43:06.165Z,5.60
2017-11-09T20:45:36.966Z,5.63
2017-11-09T20:48:07.734Z,5.43
2017-11-09T20:50:38.562Z,5.33
2017-11-09T20:53:09.922Z,5.70
2017-11-09T20:55:40.705Z,5.50
2017-11-09T20:58:11.513Z,5.70
2017-11-09T21:00:42.331Z,5.60
2017-11-09T21:03:13.114Z,5.77
2017-11-09T21:05:43.886Z,5.20
2017-11-09T21:08:14.664Z,5.33
2017-11-09T21:10:45.452Z,5.53
2017-11-09T21:13:16.190Z,5.60
2017-11-09T21:15:46.985Z,5.60
2017-11-09T21:18:17.758Z,5.27
2017-11-09T21:20:48.538Z,5.50
2017-11-09T21:23:20.801Z,5.50
2017-11-09T21:25:51.838Z,5.33
2017-11-09T21:28:22.625Z,5.67
2017-11-09T21:30:53.375Z,5.30
2017-11-09T21:33:24.176Z,5.10
2017-11-09T21:35:54.958Z,5.27
2017-11-09T21:38:25.717Z,5.40
2017-11-09T21:40:56.483Z,5.47
2017-11-09T21:43:27.267Z,5.60
2017-11-09T21:45:58.060Z,5.50
2017-11-09T21:48:28.818Z,6.00
2017-11-09T21:50:59.585Z,5.60
2017-11-09T21:53:30.361Z,5.47
2017-11-09T21:56:01.129Z,5.43
2017-11-09T21:58:31.890Z,5.37
2017-11-09T22:01:02.658Z,5.43
2017-11-09T22:03:33.534Z,5.80
2017-11-09T22:06:04.329Z,5.33
2017-11-09T22:08:35.086Z,5.20
2017-11-09T22:11:05.854Z,5.43
2017-11-09T22:13:36.609Z,5.10
2017-11-09T22:16:07.374Z,4.53
2017-11-09T22:18:38.149Z,5.23
2017-11-09T22:21:08.916Z,4.80
2017-11-09T22:23:39.699Z,5.00
2017-11-09T22:26:10.465Z,4.90
2017-11-09T22:28:41.994Z,5.27
2017-11-09T22:31:13.816Z,5.17
2017-11-09T22:33:44.581Z,5.30
2017-11-09T22:36:16.218Z,4.80
2017-11-09T22:38:46.997Z,4.90
2017-11-09T22:41:17.795Z,4.80
2017-11-09T22:43:48.571Z,4.93
2017-11-09T22:46:19.330Z,4.93
2017-11-09T22:48:50.106Z,4.90
2017-11-09T22:51:21.106Z,4.73
2017-11-09T22:53:51.908Z,4.80
2017-11-09T22:56:22.643Z,4.67
2017-11-09T22:58:53.402Z,4.37
2017-11-09T23:01:24.161Z,4.63
2017-11-09T23:03:54.926Z,4.67
2017-11-09T23:06:25.719Z,4.90
2017-11-09T23:08:56.595Z,4.67
2017-11-09T23:11:27.374Z,4.77
2017-11-09T23:13:58.155Z,5.00
2017-11-09T23:16:28.944Z,4.80
2017-11-09T23:18:59.715Z,5.10
2017-11-09T23:21:30.464Z,4.63
2017-11-09T23:24:01.266Z,4.53
2017-11-09T23:26:32.010Z,4.57
2017-11-09T23:29:02.786Z,4.90
